sensor_id;sensor_type;location;lat;lon;timestamp;P1;P2;P0
47741;PMS5003;33504;52.066;6.096;2023-02-28T00:00:50;21;21;
47741;PMS5003;33504;52.066;6.096;2023-02-28T00:03:17;25;22;
47741;PMS5003;33504;52.066;6.096;2023-02-28T00:05:44;26;25;
47741;PMS5003;33504;52.066;6.096;2023-02-28T00:08:11;22;21;
47741;PMS5003;33504;52.066;6.096;2023-02-28T00:10:39;19;18;
47741;PMS5003;33504;52.066;6.096;2023-02-28T00:13:06;21;19;
47741;PMS5003;33504;52.066;6.096;2023-02-28T00:15:34;23;19;
47741;PMS5003;33504;52.066;6.096;2023-02-28T00:18:01;24;23;
47741;PMS5003;33504;52.066;6.096;2023-02-28T00:20:28;18;18;
47741;PMS5003;33504;52.066;6.096;2023-02-28T00:22:55;23;22;
47741;PMS5003;33504;52.066;6.096;2023-02-28T00:25:24;24;21;
47741;PMS5003;33504;52.066;6.096;2023-02-28T00:27:51;22;20;
47741;PMS5003;33504;52.066;6.096;2023-02-28T00:30:19;23;20;
47741;PMS5003;33504;52.066;6.096;2023-02-28T00:32:48;24;21;
47741;PMS5003;33504;52.066;6.096;2023-02-28T00:35:16;20;19;
47741;PMS5003;33504;52.066;6.096;2023-02-28T00:37:43;22;19;
47741;PMS5003;33504;52.066;6.096;2023-02-28T00:40:11;20;20;
47741;PMS5003;33504;52.066;6.096;2023-02-28T00:42:38;24;21;
47741;PMS5003;33504;52.066;6.096;2023-02-28T00:45:06;21;20;
47741;PMS5003;33504;52.066;6.096;2023-02-28T00:47:33;20;20;
47741;PMS5003;33504;52.066;6.096;2023-02-28T00:50:01;20;18;
47741;PMS5003;33504;52.066;6.096;2023-02-28T00:52:28;19;18;
47741;PMS5003;33504;52.066;6.096;2023-02-28T00:54:55;16;16;
47741;PMS5003;33504;52.066;6.096;2023-02-28T00:57:22;24;21;
47741;PMS5003;33504;52.066;6.096;2023-02-28T00:59:50;19;19;
47741;PMS5003;33504;52.066;6.096;2023-02-28T01:02:16;28;23;
47741;PMS5003;33504;52.066;6.096;2023-02-28T01:04:43;23;20;
47741;PMS5003;33504;52.066;6.096;2023-02-28T01:07:10;19;19;
47741;PMS5003;33504;52.066;6.096;2023-02-28T01:09:37;19;18;
47741;PMS5003;33504;52.066;6.096;2023-02-28T01:12:04;21;18;
47741;PMS5003;33504;52.066;6.096;2023-02-28T01:14:32;18;18;
47741;PMS5003;33504;52.066;6.096;2023-02-28T01:16:59;17;16;
47741;PMS5003;33504;52.066;6.096;2023-02-28T01:19:27;21;21;
47741;PMS5003;33504;52.066;6.096;2023-02-28T01:21:53;19;19;
47741;PMS5003;33504;52.066;6.096;2023-02-28T01:24:20;18;18;
47741;PMS5003;33504;52.066;6.096;2023-02-28T01:26:47;21;20;
47741;PMS5003;33504;52.066;6.096;2023-02-28T01:29:15;18;17;
47741;PMS5003;33504;52.066;6.096;2023-02-28T01:31:42;21;19;
47741;PMS5003;33504;52.066;6.096;2023-02-28T01:34:09;19;16;
47741;PMS5003;33504;52.066;6.096;2023-02-28T01:36:36;24;22;
47741;PMS5003;33504;52.066;6.096;2023-02-28T01:39:03;20;18;
47741;PMS5003;33504;52.066;6.096;2023-02-28T01:41:30;22;20;
47741;PMS5003;33504;52.066;6.096;2023-02-28T01:44:02;20;20;
47741;PMS5003;33504;52.066;6.096;2023-02-28T01:46:31;18;18;
47741;PMS5003;33504;52.066;6.096;2023-02-28T01:49:02;24;24;
47741;PMS5003;33504;52.066;6.096;2023-02-28T01:51:35;19;18;
47741;PMS5003;33504;52.066;6.096;2023-02-28T01:54:08;20;20;
47741;PMS5003;33504;52.066;6.096;2023-02-28T01:56:42;25;22;
47741;PMS5003;33504;52.066;6.096;2023-02-28T01:59:12;20;19;
47741;PMS5003;33504;52.066;6.096;2023-02-28T02:01:46;21;19;
47741;PMS5003;33504;52.066;6.096;2023-02-28T02:04:14;21;20;
47741;PMS5003;33504;52.066;6.096;2023-02-28T02:06:42;23;19;
47741;PMS5003;33504;52.066;6.096;2023-02-28T02:09:12;25;24;
47741;PMS5003;33504;52.066;6.096;2023-02-28T02:11:40;22;20;
47741;PMS5003;33504;52.066;6.096;2023-02-28T02:14:13;19;18;
47741;PMS5003;33504;52.066;6.096;2023-02-28T02:16:59;20;20;
47741;PMS5003;33504;52.066;6.096;2023-02-28T02:19:44;24;21;
47741;PMS5003;33504;52.066;6.096;2023-02-28T02:22:51;22;21;
47741;PMS5003;33504;52.066;6.096;2023-02-28T02:25:34;22;21;
47741;PMS5003;33504;52.066;6.096;2023-02-28T02:28:13;19;19;
47741;PMS5003;33504;52.066;6.096;2023-02-28T02:30:59;23;21;
47741;PMS5003;33504;52.066;6.096;2023-02-28T02:33:43;23;22;
47741;PMS5003;33504;52.066;6.096;2023-02-28T02:34:24;23;22;
47741;PMS5003;33504;52.066;6.096;2023-02-28T02:37:15;22;20;
47741;PMS5003;33504;52.066;6.096;2023-02-28T02:39:52;23;22;
47741;PMS5003;33504;52.066;6.096;2023-02-28T02:42:27;21;20;
47741;PMS5003;33504;52.066;6.096;2023-02-28T02:45:00;21;19;
47741;PMS5003;33504;52.066;6.096;2023-02-28T02:47:33;20;20;
47741;PMS5003;33504;52.066;6.096;2023-02-28T02:50:03;23;23;
47741;PMS5003;33504;52.066;6.096;2023-02-28T02:52:34;26;24;
47741;PMS5003;33504;52.066;6.096;2023-02-28T02:55:05;22;22;
47741;PMS5003;33504;52.066;6.096;2023-02-28T02:57:35;26;25;
47741;PMS5003;33504;52.066;6.096;2023-02-28T03:00:08;21;21;
47741;PMS5003;33504;52.066;6.096;2023-02-28T03:02:37;25;23;
47741;PMS5003;33504;52.066;6.096;2023-02-28T03:05:07;24;22;
47741;PMS5003;33504;52.066;6.096;2023-02-28T03:07:41;22;20;
47741;PMS5003;33504;52.066;6.096;2023-02-28T03:10:25;21;19;
47741;PMS5003;33504;52.066;6.096;2023-02-28T03:12:58;20;17;
47741;PMS5003;33504;52.066;6.096;2023-02-28T03:15:36;21;20;
47741;PMS5003;33504;52.066;6.096;2023-02-28T03:18:16;20;19;
47741;PMS5003;33504;52.066;6.096;2023-02-28T03:20:53;21;20;
47741;PMS5003;33504;52.066;6.096;2023-02-28T03:23:28;21;20;
47741;PMS5003;33504;52.066;6.096;2023-02-28T03:26:03;24;23;
47741;PMS5003;33504;52.066;6.096;2023-02-28T03:28:38;22;21;
47741;PMS5003;33504;52.066;6.096;2023-02-28T03:31:10;19;18;
47741;PMS5003;33504;52.066;6.096;2023-02-28T03:33:43;19;19;
47741;PMS5003;33504;52.066;6.096;2023-02-28T03:36:15;25;24;
47741;PMS5003;33504;52.066;6.096;2023-02-28T03:38:47;23;22;
47741;PMS5003;33504;52.066;6.096;2023-02-28T03:41:19;23;21;
47741;PMS5003;33504;52.066;6.096;2023-02-28T03:43:49;23;20;
47741;PMS5003;33504;52.066;6.096;2023-02-28T03:46:20;22;21;
47741;PMS5003;33504;52.066;6.096;2023-02-28T03:48:51;22;22;
47741;PMS5003;33504;52.066;6.096;2023-02-28T03:51:24;19;19;
47741;PMS5003;33504;52.066;6.096;2023-02-28T03:53:54;20;19;
47741;PMS5003;33504;52.066;6.096;2023-02-28T03:56:26;26;22;
47741;PMS5003;33504;52.066;6.096;2023-02-28T03:59:01;21;21;
47741;PMS5003;33504;52.066;6.096;2023-02-28T04:01:34;20;19;
47741;PMS5003;33504;52.066;6.096;2023-02-28T04:04:04;23;22;
47741;PMS5003;33504;52.066;6.096;2023-02-28T04:06:32;21;21;
47741;PMS5003;33504;52.066;6.096;2023-02-28T04:08:59;20;20;
47741;PMS5003;33504;52.066;6.096;2023-02-28T04:11:27;22;22;
47741;PMS5003;33504;52.066;6.096;2023-02-28T04:13:58;26;24;
47741;PMS5003;33504;52.066;6.096;2023-02-28T04:16:25;21;21;
47741;PMS5003;33504;52.066;6.096;2023-02-28T04:18:52;26;21;
47741;PMS5003;33504;52.066;6.096;2023-02-28T04:21:19;23;23;
47741;PMS5003;33504;52.066;6.096;2023-02-28T04:23:46;24;23;
47741;PMS5003;33504;52.066;6.096;2023-02-28T04:26:13;26;24;
47741;PMS5003;33504;52.066;6.096;2023-02-28T04:28:40;27;27;
47741;PMS5003;33504;52.066;6.096;2023-02-28T04:31:07;24;23;
47741;PMS5003;33504;52.066;6.096;2023-02-28T04:33:35;23;21;
47741;PMS5003;33504;52.066;6.096;2023-02-28T04:36:04;22;22;
47741;PMS5003;33504;52.066;6.096;2023-02-28T04:38:33;27;27;
47741;PMS5003;33504;52.066;6.096;2023-02-28T04:41:02;26;24;
47741;PMS5003;33504;52.066;6.096;2023-02-28T04:43:30;24;23;
47741;PMS5003;33504;52.066;6.096;2023-02-28T04:46:00;22;22;
47741;PMS5003;33504;52.066;6.096;2023-02-28T04:48:29;26;25;
47741;PMS5003;33504;52.066;6.096;2023-02-28T04:50:59;26;23;
47741;PMS5003;33504;52.066;6.096;2023-02-28T04:53:27;26;24;
47741;PMS5003;33504;52.066;6.096;2023-02-28T04:55:55;24;23;
47741;PMS5003;33504;52.066;6.096;2023-02-28T04:58:22;25;21;
47741;PMS5003;33504;52.066;6.096;2023-02-28T05:00:50;22;19;
47741;PMS5003;33504;52.066;6.096;2023-02-28T05:03:17;23;21;
47741;PMS5003;33504;52.066;6.096;2023-02-28T05:05:44;23;21;
47741;PMS5003;33504;52.066;6.096;2023-02-28T05:08:11;18;18;
47741;PMS5003;33504;52.066;6.096;2023-02-28T05:10:38;22;21;
47741;PMS5003;33504;52.066;6.096;2023-02-28T05:13:05;27;27;
47741;PMS5003;33504;52.066;6.096;2023-02-28T05:15:32;20;19;
47741;PMS5003;33504;52.066;6.096;2023-02-28T05:17:59;18;17;
47741;PMS5003;33504;52.066;6.096;2023-02-28T05:20:26;20;19;
47741;PMS5003;33504;52.066;6.096;2023-02-28T05:22:53;20;20;
47741;PMS5003;33504;52.066;6.096;2023-02-28T05:25:20;23;20;
47741;PMS5003;33504;52.066;6.096;2023-02-28T05:27:48;16;16;
47741;PMS5003;33504;52.066;6.096;2023-02-28T05:30:15;20;19;
47741;PMS5003;33504;52.066;6.096;2023-02-28T05:32:43;20;17;
47741;PMS5003;33504;52.066;6.096;2023-02-28T05:35:10;18;17;
47741;PMS5003;33504;52.066;6.096;2023-02-28T05:37:38;19;18;
47741;PMS5003;33504;52.066;6.096;2023-02-28T05:40:06;18;18;
47741;PMS5003;33504;52.066;6.096;2023-02-28T05:42:34;18;18;
47741;PMS5003;33504;52.066;6.096;2023-02-28T05:45:01;21;19;
47741;PMS5003;33504;52.066;6.096;2023-02-28T05:47:29;16;16;
47741;PMS5003;33504;52.066;6.096;2023-02-28T05:49:57;18;17;
47741;PMS5003;33504;52.066;6.096;2023-02-28T05:52:24;18;17;
47741;PMS5003;33504;52.066;6.096;2023-02-28T05:54:51;16;15;
47741;PMS5003;33504;52.066;6.096;2023-02-28T05:57:18;15;14;
47741;PMS5003;33504;52.066;6.096;2023-02-28T05:59:45;16;16;
47741;PMS5003;33504;52.066;6.096;2023-02-28T06:02:14;17;16;
47741;PMS5003;33504;52.066;6.096;2023-02-28T06:04:43;14;14;
47741;PMS5003;33504;52.066;6.096;2023-02-28T06:07:10;14;12;
47741;PMS5003;33504;52.066;6.096;2023-02-28T06:09:38;19;18;
47741;PMS5003;33504;52.066;6.096;2023-02-28T06:12:06;16;16;
47741;PMS5003;33504;52.066;6.096;2023-02-28T06:14:33;16;16;
47741;PMS5003;33504;52.066;6.096;2023-02-28T06:17:00;18;17;
47741;PMS5003;33504;52.066;6.096;2023-02-28T06:19:29;19;18;
47741;PMS5003;33504;52.066;6.096;2023-02-28T06:21:56;18;18;
47741;PMS5003;33504;52.066;6.096;2023-02-28T06:24:25;18;16;
47741;PMS5003;33504;52.066;6.096;2023-02-28T06:26:53;15;14;
47741;PMS5003;33504;52.066;6.096;2023-02-28T06:29:20;16;15;
47741;PMS5003;33504;52.066;6.096;2023-02-28T06:31:47;17;16;
47741;PMS5003;33504;52.066;6.096;2023-02-28T06:34:15;16;16;
47741;PMS5003;33504;52.066;6.096;2023-02-28T06:36:43;20;17;
47741;PMS5003;33504;52.066;6.096;2023-02-28T06:39:09;12;12;
47741;PMS5003;33504;52.066;6.096;2023-02-28T06:41:37;16;16;
47741;PMS5003;33504;52.066;6.096;2023-02-28T06:44:04;18;17;
47741;PMS5003;33504;52.066;6.096;2023-02-28T06:46:32;17;17;
47741;PMS5003;33504;52.066;6.096;2023-02-28T06:48:59;18;17;
47741;PMS5003;33504;52.066;6.096;2023-02-28T06:51:26;23;20;
47741;PMS5003;33504;52.066;6.096;2023-02-28T06:53:53;21;17;
47741;PMS5003;33504;52.066;6.096;2023-02-28T06:56:20;18;17;
47741;PMS5003;33504;52.066;6.096;2023-02-28T06:58:47;21;19;
47741;PMS5003;33504;52.066;6.096;2023-02-28T07:01:15;20;19;
47741;PMS5003;33504;52.066;6.096;2023-02-28T07:03:43;23;21;
47741;PMS5003;33504;52.066;6.096;2023-02-28T07:06:10;21;21;
47741;PMS5003;33504;52.066;6.096;2023-02-28T07:08:37;18;18;
47741;PMS5003;33504;52.066;6.096;2023-02-28T07:11:04;20;20;
47741;PMS5003;33504;52.066;6.096;2023-02-28T07:13:31;20;19;
47741;PMS5003;33504;52.066;6.096;2023-02-28T07:15:59;19;19;
47741;PMS5003;33504;52.066;6.096;2023-02-28T07:18:28;23;22;
47741;PMS5003;33504;52.066;6.096;2023-02-28T07:20:56;26;25;
47741;PMS5003;33504;52.066;6.096;2023-02-28T07:23:23;25;23;
47741;PMS5003;33504;52.066;6.096;2023-02-28T07:25:50;24;24;
47741;PMS5003;33504;52.066;6.096;2023-02-28T07:28:17;19;18;
47741;PMS5003;33504;52.066;6.096;2023-02-28T07:30:44;21;20;
47741;PMS5003;33504;52.066;6.096;2023-02-28T07:33:11;23;21;
47741;PMS5003;33504;52.066;6.096;2023-02-28T07:35:38;23;21;
47741;PMS5003;33504;52.066;6.096;2023-02-28T07:38:05;21;21;
47741;PMS5003;33504;52.066;6.096;2023-02-28T07:40:33;19;19;
47741;PMS5003;33504;52.066;6.096;2023-02-28T07:43:01;20;19;
47741;PMS5003;33504;52.066;6.096;2023-02-28T07:45:29;19;19;
47741;PMS5003;33504;52.066;6.096;2023-02-28T07:47:56;21;20;
47741;PMS5003;33504;52.066;6.096;2023-02-28T07:50:23;23;20;
47741;PMS5003;33504;52.066;6.096;2023-02-28T07:52:50;21;20;
47741;PMS5003;33504;52.066;6.096;2023-02-28T07:55:17;33;33;
47741;PMS5003;33504;52.066;6.096;2023-02-28T07:57:45;22;19;
47741;PMS5003;33504;52.066;6.096;2023-02-28T08:00:12;17;16;
47741;PMS5003;33504;52.066;6.096;2023-02-28T08:02:40;17;16;
47741;PMS5003;33504;52.066;6.096;2023-02-28T08:05:07;17;15;
47741;PMS5003;33504;52.066;6.096;2023-02-28T08:07:34;16;16;
47741;PMS5003;33504;52.066;6.096;2023-02-28T08:10:01;16;16;
47741;PMS5003;33504;52.066;6.096;2023-02-28T08:12:28;12;12;
47741;PMS5003;33504;52.066;6.096;2023-02-28T08:14:55;12;12;
47741;PMS5003;33504;52.066;6.096;2023-02-28T08:17:22;13;13;
47741;PMS5003;33504;52.066;6.096;2023-02-28T08:19:50;11;11;
47741;PMS5003;33504;52.066;6.096;2023-02-28T08:22:16;10;9;
47741;PMS5003;33504;52.066;6.096;2023-02-28T08:24:43;8;8;
47741;PMS5003;33504;52.066;6.096;2023-02-28T08:27:11;8;8;
47741;PMS5003;33504;52.066;6.096;2023-02-28T08:29:38;6;6;
47741;PMS5003;33504;52.066;6.096;2023-02-28T08:32:06;9;8;
47741;PMS5003;33504;52.066;6.096;2023-02-28T08:34:33;9;9;
47741;PMS5003;33504;52.066;6.096;2023-02-28T08:37:00;7;7;
47741;PMS5003;33504;52.066;6.096;2023-02-28T08:39:28;8;8;
47741;PMS5003;33504;52.066;6.096;2023-02-28T08:41:55;8;8;
47741;PMS5003;33504;52.066;6.096;2023-02-28T08:44:21;8;8;
47741;PMS5003;33504;52.066;6.096;2023-02-28T08:46:48;9;8;
47741;PMS5003;33504;52.066;6.096;2023-02-28T08:49:15;11;11;
47741;PMS5003;33504;52.066;6.096;2023-02-28T08:51:42;8;8;
47741;PMS5003;33504;52.066;6.096;2023-02-28T08:54:09;45;45;
47741;PMS5003;33504;52.066;6.096;2023-02-28T08:56:36;13;13;
47741;PMS5003;33504;52.066;6.096;2023-02-28T08:59:03;25;25;
47741;PMS5003;33504;52.066;6.096;2023-02-28T09:01:30;19;19;
47741;PMS5003;33504;52.066;6.096;2023-02-28T09:03:57;9;9;
47741;PMS5003;33504;52.066;6.096;2023-02-28T09:06:25;16;16;
47741;PMS5003;33504;52.066;6.096;2023-02-28T09:08:53;10;10;
47741;PMS5003;33504;52.066;6.096;2023-02-28T09:11:23;16;15;
47741;PMS5003;33504;52.066;6.096;2023-02-28T09:13:50;14;14;
47741;PMS5003;33504;52.066;6.096;2023-02-28T09:16:17;26;26;
47741;PMS5003;33504;52.066;6.096;2023-02-28T09:18:44;19;19;
47741;PMS5003;33504;52.066;6.096;2023-02-28T09:21:12;14;13;
47741;PMS5003;33504;52.066;6.096;2023-02-28T09:23:41;7;7;
47741;PMS5003;33504;52.066;6.096;2023-02-28T09:26:12;5;5;
47741;PMS5003;33504;52.066;6.096;2023-02-28T09:28:40;5;5;
47741;PMS5003;33504;52.066;6.096;2023-02-28T09:31:10;4;4;
47741;PMS5003;33504;52.066;6.096;2023-02-28T09:33:40;4;4;
47741;PMS5003;33504;52.066;6.096;2023-02-28T09:36:07;6;6;
47741;PMS5003;33504;52.066;6.096;2023-02-28T09:38:34;8;7;
47741;PMS5003;33504;52.066;6.096;2023-02-28T09:41:03;6;6;
47741;PMS5003;33504;52.066;6.096;2023-02-28T09:43:37;6;5;
47741;PMS5003;33504;52.066;6.096;2023-02-28T09:46:08;6;6;
47741;PMS5003;33504;52.066;6.096;2023-02-28T09:48:44;6;6;
47741;PMS5003;33504;52.066;6.096;2023-02-28T09:51:18;4;4;
47741;PMS5003;33504;52.066;6.096;2023-02-28T09:53:56;4;4;
47741;PMS5003;33504;52.066;6.096;2023-02-28T09:56:25;5;5;
47741;PMS5003;33504;52.066;6.096;2023-02-28T09:58:58;5;5;
47741;PMS5003;33504;52.066;6.096;2023-02-28T10:01:31;6;6;
47741;PMS5003;33504;52.066;6.096;2023-02-28T10:04:07;5;5;
47741;PMS5003;33504;52.066;6.096;2023-02-28T10:06:44;5;4;
47741;PMS5003;33504;52.066;6.096;2023-02-28T10:09:15;4;4;
47741;PMS5003;33504;52.066;6.096;2023-02-28T10:11:46;4;4;
47741;PMS5003;33504;52.066;6.096;2023-02-28T10:14:14;5;5;
47741;PMS5003;33504;52.066;6.096;2023-02-28T10:16:44;7;7;
47741;PMS5003;33504;52.066;6.096;2023-02-28T10:19:16;7;7;
47741;PMS5003;33504;52.066;6.096;2023-02-28T10:21:47;5;5;
47741;PMS5003;33504;52.066;6.096;2023-02-28T10:24:23;6;6;
47741;PMS5003;33504;52.066;6.096;2023-02-28T10:26:58;5;5;
47741;PMS5003;33504;52.066;6.096;2023-02-28T10:29:29;5;5;
47741;PMS5003;33504;52.066;6.096;2023-02-28T10:31:59;5;5;
47741;PMS5003;33504;52.066;6.096;2023-02-28T10:34:28;5;5;
47741;PMS5003;33504;52.066;6.096;2023-02-28T10:36:55;5;5;
47741;PMS5003;33504;52.066;6.096;2023-02-28T10:39:39;5;5;
47741;PMS5003;33504;52.066;6.096;2023-02-28T10:42:25;5;5;
47741;PMS5003;33504;52.066;6.096;2023-02-28T10:45:10;6;6;
47741;PMS5003;33504;52.066;6.096;2023-02-28T10:47:41;6;6;
47741;PMS5003;33504;52.066;6.096;2023-02-28T10:50:35;5;5;
47741;PMS5003;33504;52.066;6.096;2023-02-28T10:53:15;5;5;
47741;PMS5003;33504;52.066;6.096;2023-02-28T10:55:57;7;7;
47741;PMS5003;33504;52.066;6.096;2023-02-28T10:58:27;7;7;
47741;PMS5003;33504;52.066;6.096;2023-02-28T11:00:56;8;7;
47741;PMS5003;33504;52.066;6.096;2023-02-28T11:03:28;8;7;
47741;PMS5003;33504;52.066;6.096;2023-02-28T11:05:57;8;8;
47741;PMS5003;33504;52.066;6.096;2023-02-28T11:08:26;10;10;
47741;PMS5003;33504;52.066;6.096;2023-02-28T11:10:54;5;5;
47741;PMS5003;33504;52.066;6.096;2023-02-28T11:13:25;8;8;
47741;PMS5003;33504;52.066;6.096;2023-02-28T11:15:56;7;7;
47741;PMS5003;33504;52.066;6.096;2023-02-28T11:18:27;7;7;
47741;PMS5003;33504;52.066;6.096;2023-02-28T11:20:57;43;42;
47741;PMS5003;33504;52.066;6.096;2023-02-28T11:23:29;10;10;
47741;PMS5003;33504;52.066;6.096;2023-02-28T11:25:59;10;10;
47741;PMS5003;33504;52.066;6.096;2023-02-28T11:28:29;6;6;
47741;PMS5003;33504;52.066;6.096;2023-02-28T11:31:03;6;6;
47741;PMS5003;33504;52.066;6.096;2023-02-28T11:33:32;6;6;
47741;PMS5003;33504;52.066;6.096;2023-02-28T11:36:10;6;6;
47741;PMS5003;33504;52.066;6.096;2023-02-28T11:38:38;8;7;
47741;PMS5003;33504;52.066;6.096;2023-02-28T11:41:10;6;6;
47741;PMS5003;33504;52.066;6.096;2023-02-28T11:41:51;6;6;
47741;PMS5003;33504;52.066;6.096;2023-02-28T11:44:30;7;7;
47741;PMS5003;33504;52.066;6.096;2023-02-28T11:47:11;6;6;
47741;PMS5003;33504;52.066;6.096;2023-02-28T11:49:43;8;8;
47741;PMS5003;33504;52.066;6.096;2023-02-28T11:52:20;9;9;
47741;PMS5003;33504;52.066;6.096;2023-02-28T11:54:59;9;8;
47741;PMS5003;33504;52.066;6.096;2023-02-28T11:57:43;8;8;
47741;PMS5003;33504;52.066;6.096;2023-02-28T12:00:25;7;7;
47741;PMS5003;33504;52.066;6.096;2023-02-28T12:03:10;8;7;
47741;PMS5003;33504;52.066;6.096;2023-02-28T12:05:45;8;8;
47741;PMS5003;33504;52.066;6.096;2023-02-28T12:08:21;7;6;
47741;PMS5003;33504;52.066;6.096;2023-02-28T12:11:02;7;7;
47741;PMS5003;33504;52.066;6.096;2023-02-28T12:13:41;8;8;
47741;PMS5003;33504;52.066;6.096;2023-02-28T12:16:21;8;8;
47741;PMS5003;33504;52.066;6.096;2023-02-28T12:18:59;7;7;
47741;PMS5003;33504;52.066;6.096;2023-02-28T12:21:43;8;8;
47741;PMS5003;33504;52.066;6.096;2023-02-28T12:24:27;7;7;
47741;PMS5003;33504;52.066;6.096;2023-02-28T12:27:05;9;8;
47741;PMS5003;33504;52.066;6.096;2023-02-28T12:29:39;7;7;
47741;PMS5003;33504;52.066;6.096;2023-02-28T12:32:15;9;9;
47741;PMS5003;33504;52.066;6.096;2023-02-28T12:34:47;9;9;
47741;PMS5003;33504;52.066;6.096;2023-02-28T12:37:19;8;8;
47741;PMS5003;33504;52.066;6.096;2023-02-28T12:39:54;8;8;
47741;PMS5003;33504;52.066;6.096;2023-02-28T12:42:27;9;8;
47741;PMS5003;33504;52.066;6.096;2023-02-28T12:44:57;8;8;
47741;PMS5003;33504;52.066;6.096;2023-02-28T12:47:25;9;9;
47741;PMS5003;33504;52.066;6.096;2023-02-28T12:49:53;9;8;
47741;PMS5003;33504;52.066;6.096;2023-02-28T12:52:25;8;7;
47741;PMS5003;33504;52.066;6.096;2023-02-28T12:55:03;7;7;
47741;PMS5003;33504;52.066;6.096;2023-02-28T12:57:36;6;6;
47741;PMS5003;33504;52.066;6.096;2023-02-28T13:00:10;6;6;
47741;PMS5003;33504;52.066;6.096;2023-02-28T13:02:48;7;7;
47741;PMS5003;33504;52.066;6.096;2023-02-28T13:05:52;9;9;
47741;PMS5003;33504;52.066;6.096;2023-02-28T13:08:37;7;7;
47741;PMS5003;33504;52.066;6.096;2023-02-28T13:11:25;13;12;
47741;PMS5003;33504;52.066;6.096;2023-02-28T13:13:57;12;12;
47741;PMS5003;33504;52.066;6.096;2023-02-28T13:16:26;10;9;
47741;PMS5003;33504;52.066;6.096;2023-02-28T13:18:57;13;12;
47741;PMS5003;33504;52.066;6.096;2023-02-28T13:21:41;9;8;
47741;PMS5003;33504;52.066;6.096;2023-02-28T13:24:10;9;9;
47741;PMS5003;33504;52.066;6.096;2023-02-28T13:27:21;10;10;
47741;PMS5003;33504;52.066;6.096;2023-02-28T13:29:58;8;8;
47741;PMS5003;33504;52.066;6.096;2023-02-28T13:32:28;10;9;
47741;PMS5003;33504;52.066;6.096;2023-02-28T13:35:34;9;9;
47741;PMS5003;33504;52.066;6.096;2023-02-28T13:38:37;8;8;
47741;PMS5003;33504;52.066;6.096;2023-02-28T13:41:40;9;8;
47741;PMS5003;33504;52.066;6.096;2023-02-28T13:44:11;9;9;
47741;PMS5003;33504;52.066;6.096;2023-02-28T13:47:16;7;7;
47741;PMS5003;33504;52.066;6.096;2023-02-28T13:49:47;12;11;
47741;PMS5003;33504;52.066;6.096;2023-02-28T13:52:18;9;9;
47741;PMS5003;33504;52.066;6.096;2023-02-28T13:54:53;6;6;
47741;PMS5003;33504;52.066;6.096;2023-02-28T13:57:33;7;7;
47741;PMS5003;33504;52.066;6.096;2023-02-28T14:00:16;7;7;
47741;PMS5003;33504;52.066;6.096;2023-02-28T14:03:00;11;11;
47741;PMS5003;33504;52.066;6.096;2023-02-28T14:05:37;7;7;
47741;PMS5003;33504;52.066;6.096;2023-02-28T14:08:05;8;8;
47741;PMS5003;33504;52.066;6.096;2023-02-28T14:10:40;9;9;
47741;PMS5003;33504;52.066;6.096;2023-02-28T14:13:12;9;9;
47741;PMS5003;33504;52.066;6.096;2023-02-28T14:16:02;9;9;
47741;PMS5003;33504;52.066;6.096;2023-02-28T14:18:32;11;10;
47741;PMS5003;33504;52.066;6.096;2023-02-28T14:21:08;12;10;
47741;PMS5003;33504;52.066;6.096;2023-02-28T14:23:43;10;10;
47741;PMS5003;33504;52.066;6.096;2023-02-28T14:26:28;11;11;
47741;PMS5003;33504;52.066;6.096;2023-02-28T14:29:17;14;14;
47741;PMS5003;33504;52.066;6.096;2023-02-28T14:31:58;22;20;
47741;PMS5003;33504;52.066;6.096;2023-02-28T14:34:34;11;11;
47741;PMS5003;33504;52.066;6.096;2023-02-28T14:37:13;14;13;
47741;PMS5003;33504;52.066;6.096;2023-02-28T14:39:45;10;10;
47741;PMS5003;33504;52.066;6.096;2023-02-28T14:42:30;8;8;
47741;PMS5003;33504;52.066;6.096;2023-02-28T14:44:58;9;9;
47741;PMS5003;33504;52.066;6.096;2023-02-28T14:47:27;9;9;
47741;PMS5003;33504;52.066;6.096;2023-02-28T14:49:57;9;9;
47741;PMS5003;33504;52.066;6.096;2023-02-28T14:52:26;11;11;
47741;PMS5003;33504;52.066;6.096;2023-02-28T14:54:55;10;9;
47741;PMS5003;33504;52.066;6.096;2023-02-28T14:57:25;6;6;
47741;PMS5003;33504;52.066;6.096;2023-02-28T14:59:58;8;7;
47741;PMS5003;33504;52.066;6.096;2023-02-28T15:02:29;9;8;
47741;PMS5003;33504;52.066;6.096;2023-02-28T15:05:00;7;7;
47741;PMS5003;33504;52.066;6.096;2023-02-28T15:07:36;8;8;
47741;PMS5003;33504;52.066;6.096;2023-02-28T15:10:19;8;8;
47741;PMS5003;33504;52.066;6.096;2023-02-28T15:12:52;9;7;
47741;PMS5003;33504;52.066;6.096;2023-02-28T15:15:20;8;7;
47741;PMS5003;33504;52.066;6.096;2023-02-28T15:17:49;7;7;
47741;PMS5003;33504;52.066;6.096;2023-02-28T15:20:19;9;9;
47741;PMS5003;33504;52.066;6.096;2023-02-28T15:22:47;7;7;
47741;PMS5003;33504;52.066;6.096;2023-02-28T15:25:18;11;10;
47741;PMS5003;33504;52.066;6.096;2023-02-28T15:27:48;11;11;
47741;PMS5003;33504;52.066;6.096;2023-02-28T15:30:20;12;11;
47741;PMS5003;33504;52.066;6.096;2023-02-28T15:33:17;11;11;
47741;PMS5003;33504;52.066;6.096;2023-02-28T15:35:46;10;10;
47741;PMS5003;33504;52.066;6.096;2023-02-28T15:38:15;23;23;
47741;PMS5003;33504;52.066;6.096;2023-02-28T15:40:46;13;13;
47741;PMS5003;33504;52.066;6.096;2023-02-28T15:43:18;25;25;
47741;PMS5003;33504;52.066;6.096;2023-02-28T15:45:57;20;20;
47741;PMS5003;33504;52.066;6.096;2023-02-28T15:48:27;17;17;
47741;PMS5003;33504;52.066;6.096;2023-02-28T15:50:56;14;14;
47741;PMS5003;33504;52.066;6.096;2023-02-28T15:53:30;11;11;
47741;PMS5003;33504;52.066;6.096;2023-02-28T15:56:01;8;8;
47741;PMS5003;33504;52.066;6.096;2023-02-28T15:58:31;9;9;
47741;PMS5003;33504;52.066;6.096;2023-02-28T16:01:04;10;10;
47741;PMS5003;33504;52.066;6.096;2023-02-28T16:03:37;10;10;
47741;PMS5003;33504;52.066;6.096;2023-02-28T16:06:41;10;9;
47741;PMS5003;33504;52.066;6.096;2023-02-28T16:09:09;10;10;
47741;PMS5003;33504;52.066;6.096;2023-02-28T16:11:39;8;8;
47741;PMS5003;33504;52.066;6.096;2023-02-28T16:14:11;14;14;
47741;PMS5003;33504;52.066;6.096;2023-02-28T16:16:43;9;9;
47741;PMS5003;33504;52.066;6.096;2023-02-28T16:19:11;9;9;
47741;PMS5003;33504;52.066;6.096;2023-02-28T16:21:39;12;12;
47741;PMS5003;33504;52.066;6.096;2023-02-28T16:24:06;16;15;
47741;PMS5003;33504;52.066;6.096;2023-02-28T16:26:33;14;14;
47741;PMS5003;33504;52.066;6.096;2023-02-28T16:29:01;15;15;
47741;PMS5003;33504;52.066;6.096;2023-02-28T16:31:28;17;16;
47741;PMS5003;33504;52.066;6.096;2023-02-28T16:33:56;17;16;
47741;PMS5003;33504;52.066;6.096;2023-02-28T16:36:24;18;17;
47741;PMS5003;33504;52.066;6.096;2023-02-28T16:38:51;20;19;
47741;PMS5003;33504;52.066;6.096;2023-02-28T16:41:18;19;18;
47741;PMS5003;33504;52.066;6.096;2023-02-28T16:43:49;16;15;
47741;PMS5003;33504;52.066;6.096;2023-02-28T16:46:17;34;31;
47741;PMS5003;33504;52.066;6.096;2023-02-28T16:48:45;21;20;
47741;PMS5003;33504;52.066;6.096;2023-02-28T16:51:14;23;23;
47741;PMS5003;33504;52.066;6.096;2023-02-28T16:53:42;25;23;